sensor_id;sensor_type;location;lat;lon;timestamp;P1;durP1;ratioP1;P2;durP2;ratioP2
44536;SDS011;30245;51.966;6.292;2023-07-16T00:00:29;3.42;;;0.65;;
44536;SDS011;30245;51.966;6.292;2023-07-16T00:02:55;3.38;;;1.02;;
44536;SDS011;30245;51.966;6.292;2023-07-16T00:05:21;1.55;;;0.40;;
44536;SDS011;30245;51.966;6.292;2023-07-16T00:07:47;1.38;;;0.63;;
44536;SDS011;30245;51.966;6.292;2023-07-16T00:10:12;1.42;;;0.50;;
44536;SDS011;30245;51.966;6.292;2023-07-16T00:12:38;2.38;;;0.40;;
44536;SDS011;30245;51.966;6.292;2023-07-16T00:15:04;3.72;;;1.08;;
44536;SDS011;30245;51.966;6.292;2023-07-16T00:17:31;0.90;;;0.40;;
44536;SDS011;30245;51.966;6.292;2023-07-16T00:19:57;3.58;;;0.73;;
44536;SDS011;30245;51.966;6.292;2023-07-16T00:22:23;3.47;;;0.80;;
44536;SDS011;30245;51.966;6.292;2023-07-16T00:24:48;1.80;;;0.50;;
44536;SDS011;30245;51.966;6.292;2023-07-16T00:27:14;2.63;;;0.65;;
44536;SDS011;30245;51.966;6.292;2023-07-16T00:29:40;0.90;;;0.40;;
44536;SDS011;30245;51.966;6.292;2023-07-16T00:32:05;2.22;;;0.82;;
44536;SDS011;30245;51.966;6.292;2023-07-16T00:34:31;1.00;;;0.52;;
44536;SDS011;30245;51.966;6.292;2023-07-16T00:36:57;0.90;;;0.40;;
44536;SDS011;30245;51.966;6.292;2023-07-16T00:39:27;1.30;;;0.60;;
44536;SDS011;30245;51.966;6.292;2023-07-16T00:41:53;1.80;;;0.60;;
44536;SDS011;30245;51.966;6.292;2023-07-16T00:44:18;2.75;;;1.80;;
44536;SDS011;30245;51.966;6.292;2023-07-16T00:46:44;1.20;;;0.40;;
44536;SDS011;30245;51.966;6.292;2023-07-16T00:49:09;3.97;;;1.67;;
44536;SDS011;30245;51.966;6.292;2023-07-16T00:51:35;2.10;;;0.60;;
44536;SDS011;30245;51.966;6.292;2023-07-16T00:54:01;4.32;;;0.70;;
44536;SDS011;30245;51.966;6.292;2023-07-16T00:56:27;1.42;;;0.50;;
44536;SDS011;30245;51.966;6.292;2023-07-16T00:58:54;1.45;;;0.50;;
44536;SDS011;30245;51.966;6.292;2023-07-16T01:01:19;2.33;;;0.47;;
44536;SDS011;30245;51.966;6.292;2023-07-16T01:03:45;5.35;;;1.17;;
44536;SDS011;30245;51.966;6.292;2023-07-16T01:06:18;4.93;;;0.80;;
44536;SDS011;30245;51.966;6.292;2023-07-16T01:08:55;1.15;;;0.40;;
44536;SDS011;30245;51.966;6.292;2023-07-16T01:11:28;2.13;;;0.30;;
44536;SDS011;30245;51.966;6.292;2023-07-16T01:13:54;2.70;;;0.60;;
44536;SDS011;30245;51.966;6.292;2023-07-16T01:16:22;1.85;;;0.30;;
44536;SDS011;30245;51.966;6.292;2023-07-16T01:18:49;2.15;;;0.50;;
44536;SDS011;30245;51.966;6.292;2023-07-16T01:21:16;2.00;;;0.60;;
44536;SDS011;30245;51.966;6.292;2023-07-16T01:23:56;1.75;;;0.50;;
44536;SDS011;30245;51.966;6.292;2023-07-16T01:26:47;4.20;;;0.30;;
44536;SDS011;30245;51.966;6.292;2023-07-16T01:29:35;2.33;;;0.43;;
44536;SDS011;30245;51.966;6.292;2023-07-16T01:32:06;1.42;;;0.35;;
44536;SDS011;30245;51.966;6.292;2023-07-16T01:34:33;1.45;;;0.22;;
44536;SDS011;30245;51.966;6.292;2023-07-16T01:39:27;1.05;;;0.40;;
44536;SDS011;30245;51.966;6.292;2023-07-16T01:41:53;2.28;;;0.40;;
44536;SDS011;30245;51.966;6.292;2023-07-16T01:44:19;6.60;;;0.65;;
44536;SDS011;30245;51.966;6.292;2023-07-16T01:46:45;1.50;;;0.40;;
44536;SDS011;30245;51.966;6.292;2023-07-16T01:49:18;2.83;;;0.50;;
44536;SDS011;30245;51.966;6.292;2023-07-16T01:51:44;1.10;;;0.30;;
44536;SDS011;30245;51.966;6.292;2023-07-16T01:54:09;2.40;;;1.05;;
44536;SDS011;30245;51.966;6.292;2023-07-16T01:56:35;1.50;;;0.43;;
44536;SDS011;30245;51.966;6.292;2023-07-16T01:59:01;1.23;;;0.60;;
44536;SDS011;30245;51.966;6.292;2023-07-16T02:01:26;1.80;;;0.40;;
44536;SDS011;30245;51.966;6.292;2023-07-16T02:03:52;1.65;;;0.38;;
44536;SDS011;30245;51.966;6.292;2023-07-16T02:06:18;3.20;;;0.50;;
44536;SDS011;30245;51.966;6.292;2023-07-16T02:08:43;11.07;;;0.60;;
44536;SDS011;30245;51.966;6.292;2023-07-16T02:11:09;3.85;;;0.65;;
44536;SDS011;30245;51.966;6.292;2023-07-16T02:13:35;4.25;;;0.52;;
44536;SDS011;30245;51.966;6.292;2023-07-16T02:16:00;1.25;;;0.30;;
44536;SDS011;30245;51.966;6.292;2023-07-16T02:18:26;2.63;;;0.63;;
44536;SDS011;30245;51.966;6.292;2023-07-16T02:20:51;3.13;;;0.45;;
44536;SDS011;30245;51.966;6.292;2023-07-16T02:23:17;2.05;;;0.40;;
44536;SDS011;30245;51.966;6.292;2023-07-16T02:25:42;3.50;;;0.38;;
44536;SDS011;30245;51.966;6.292;2023-07-16T02:28:08;0.85;;;0.30;;
44536;SDS011;30245;51.966;6.292;2023-07-16T02:30:33;2.03;;;0.30;;
44536;SDS011;30245;51.966;6.292;2023-07-16T02:32:59;1.70;;;0.80;;
44536;SDS011;30245;51.966;6.292;2023-07-16T02:35:25;1.58;;;0.35;;
44536;SDS011;30245;51.966;6.292;2023-07-16T02:37:50;2.35;;;0.40;;
44536;SDS011;30245;51.966;6.292;2023-07-16T02:40:16;3.22;;;0.30;;
44536;SDS011;30245;51.966;6.292;2023-07-16T02:42:41;2.95;;;0.50;;
44536;SDS011;30245;51.966;6.292;2023-07-16T02:45:07;2.92;;;0.50;;
44536;SDS011;30245;51.966;6.292;2023-07-16T02:47:33;2.75;;;0.80;;
44536;SDS011;30245;51.966;6.292;2023-07-16T02:49:58;1.48;;;0.40;;
44536;SDS011;30245;51.966;6.292;2023-07-16T02:52:24;3.83;;;0.38;;
44536;SDS011;30245;51.966;6.292;2023-07-16T02:54:50;0.77;;;0.28;;
44536;SDS011;30245;51.966;6.292;2023-07-16T02:57:16;1.80;;;0.50;;
44536;SDS011;30245;51.966;6.292;2023-07-16T02:59:42;1.70;;;0.63;;
44536;SDS011;30245;51.966;6.292;2023-07-16T03:02:07;2.65;;;0.40;;
44536;SDS011;30245;51.966;6.292;2023-07-16T03:04:33;1.63;;;0.40;;
44536;SDS011;30245;51.966;6.292;2023-07-16T03:06:58;2.90;;;0.50;;
44536;SDS011;30245;51.966;6.292;2023-07-16T03:09:24;1.50;;;0.25;;
44536;SDS011;30245;51.966;6.292;2023-07-16T03:11:50;2.90;;;0.80;;
44536;SDS011;30245;51.966;6.292;2023-07-16T03:14:15;2.30;;;0.45;;
44536;SDS011;30245;51.966;6.292;2023-07-16T03:16:41;2.63;;;0.40;;
44536;SDS011;30245;51.966;6.292;2023-07-16T03:19:06;7.45;;;0.50;;
44536;SDS011;30245;51.966;6.292;2023-07-16T03:21:32;0.90;;;0.40;;
44536;SDS011;30245;51.966;6.292;2023-07-16T03:23:58;1.13;;;0.50;;
44536;SDS011;30245;51.966;6.292;2023-07-16T03:26:23;2.55;;;0.80;;
44536;SDS011;30245;51.966;6.292;2023-07-16T03:28:49;2.15;;;0.75;;
44536;SDS011;30245;51.966;6.292;2023-07-16T03:31:14;6.28;;;0.50;;
44536;SDS011;30245;51.966;6.292;2023-07-16T03:33:40;5.15;;;0.38;;
44536;SDS011;30245;51.966;6.292;2023-07-16T03:36:06;3.15;;;0.50;;
44536;SDS011;30245;51.966;6.292;2023-07-16T03:38:31;2.33;;;0.43;;
44536;SDS011;30245;51.966;6.292;2023-07-16T03:40:57;1.30;;;0.40;;
44536;SDS011;30245;51.966;6.292;2023-07-16T03:43:22;1.15;;;0.40;;
44536;SDS011;30245;51.966;6.292;2023-07-16T03:45:48;1.55;;;0.40;;
44536;SDS011;30245;51.966;6.292;2023-07-16T03:48:15;2.97;;;0.40;;
44536;SDS011;30245;51.966;6.292;2023-07-16T03:50:40;3.05;;;0.60;;
44536;SDS011;30245;51.966;6.292;2023-07-16T03:53:06;3.28;;;0.43;;
44536;SDS011;30245;51.966;6.292;2023-07-16T03:55:31;1.83;;;0.50;;
44536;SDS011;30245;51.966;6.292;2023-07-16T03:57:57;3.70;;;0.60;;
44536;SDS011;30245;51.966;6.292;2023-07-16T04:00:23;2.85;;;0.57;;
44536;SDS011;30245;51.966;6.292;2023-07-16T04:02:48;1.13;;;0.50;;
44536;SDS011;30245;51.966;6.292;2023-07-16T04:05:14;2.60;;;0.73;;
44536;SDS011;30245;51.966;6.292;2023-07-16T04:07:39;1.27;;;0.50;;
44536;SDS011;30245;51.966;6.292;2023-07-16T04:10:05;1.27;;;0.70;;
44536;SDS011;30245;51.966;6.292;2023-07-16T04:12:31;2.88;;;0.47;;
44536;SDS011;30245;51.966;6.292;2023-07-16T04:14:57;1.38;;;0.82;;
44536;SDS011;30245;51.966;6.292;2023-07-16T04:17:24;2.00;;;0.63;;
44536;SDS011;30245;51.966;6.292;2023-07-16T04:19:50;4.50;;;0.73;;
44536;SDS011;30245;51.966;6.292;2023-07-16T04:22:16;1.45;;;0.50;;
44536;SDS011;30245;51.966;6.292;2023-07-16T04:24:41;4.20;;;0.70;;
44536;SDS011;30245;51.966;6.292;2023-07-16T04:27:07;4.22;;;0.88;;
44536;SDS011;30245;51.966;6.292;2023-07-16T04:29:32;2.45;;;0.68;;
44536;SDS011;30245;51.966;6.292;2023-07-16T04:31:58;3.10;;;0.80;;
44536;SDS011;30245;51.966;6.292;2023-07-16T04:34:24;3.65;;;1.25;;
44536;SDS011;30245;51.966;6.292;2023-07-16T04:36:50;2.83;;;0.85;;
44536;SDS011;30245;51.966;6.292;2023-07-16T04:39:15;7.20;;;1.10;;
44536;SDS011;30245;51.966;6.292;2023-07-16T04:41:41;4.72;;;1.08;;
44536;SDS011;30245;51.966;6.292;2023-07-16T04:44:07;6.63;;;1.45;;
44536;SDS011;30245;51.966;6.292;2023-07-16T04:46:32;3.15;;;1.40;;
44536;SDS011;30245;51.966;6.292;2023-07-16T04:48:58;5.15;;;1.40;;
44536;SDS011;30245;51.966;6.292;2023-07-16T04:51:24;4.25;;;0.90;;
44536;SDS011;30245;51.966;6.292;2023-07-16T04:53:50;2.55;;;0.93;;
44536;SDS011;30245;51.966;6.292;2023-07-16T04:56:16;2.13;;;0.63;;
44536;SDS011;30245;51.966;6.292;2023-07-16T04:58:42;3.72;;;1.48;;
44536;SDS011;30245;51.966;6.292;2023-07-16T05:01:08;4.18;;;0.95;;
44536;SDS011;30245;51.966;6.292;2023-07-16T05:03:34;3.35;;;0.63;;
44536;SDS011;30245;51.966;6.292;2023-07-16T05:06:01;1.80;;;0.68;;
44536;SDS011;30245;51.966;6.292;2023-07-16T05:08:27;2.67;;;1.08;;
44536;SDS011;30245;51.966;6.292;2023-07-16T05:10:52;5.55;;;1.30;;
44536;SDS011;30245;51.966;6.292;2023-07-16T05:13:18;1.40;;;0.50;;
44536;SDS011;30245;51.966;6.292;2023-07-16T05:15:44;3.72;;;1.20;;
44536;SDS011;30245;51.966;6.292;2023-07-16T05:18:09;4.45;;;0.88;;
44536;SDS011;30245;51.966;6.292;2023-07-16T05:20:35;2.50;;;0.80;;
44536;SDS011;30245;51.966;6.292;2023-07-16T05:23:01;2.50;;;1.35;;
44536;SDS011;30245;51.966;6.292;2023-07-16T05:25:27;4.43;;;1.27;;
44536;SDS011;30245;51.966;6.292;2023-07-16T05:27:52;5.28;;;1.55;;
44536;SDS011;30245;51.966;6.292;2023-07-16T05:30:18;4.30;;;0.77;;
44536;SDS011;30245;51.966;6.292;2023-07-16T05:32:43;4.88;;;1.15;;
44536;SDS011;30245;51.966;6.292;2023-07-16T05:35:09;4.93;;;1.67;;
44536;SDS011;30245;51.966;6.292;2023-07-16T05:37:35;3.35;;;1.10;;
44536;SDS011;30245;51.966;6.292;2023-07-16T05:40:00;3.53;;;1.20;;
44536;SDS011;30245;51.966;6.292;2023-07-16T05:42:27;8.73;;;1.85;;
44536;SDS011;30245;51.966;6.292;2023-07-16T05:44:53;3.80;;;1.00;;
44536;SDS011;30245;51.966;6.292;2023-07-16T05:47:19;4.53;;;1.15;;
44536;SDS011;30245;51.966;6.292;2023-07-16T05:49:44;5.20;;;1.02;;
44536;SDS011;30245;51.966;6.292;2023-07-16T05:52:10;3.90;;;1.30;;
44536;SDS011;30245;51.966;6.292;2023-07-16T05:54:36;4.75;;;1.77;;
44536;SDS011;30245;51.966;6.292;2023-07-16T05:57:01;3.10;;;0.95;;
44536;SDS011;30245;51.966;6.292;2023-07-16T05:59:27;5.32;;;2.25;;
44536;SDS011;30245;51.966;6.292;2023-07-16T06:01:53;4.03;;;1.60;;
44536;SDS011;30245;51.966;6.292;2023-07-16T06:04:18;10.38;;;1.48;;
44536;SDS011;30245;51.966;6.292;2023-07-16T06:06:44;6.82;;;1.75;;
44536;SDS011;30245;51.966;6.292;2023-07-16T06:09:09;4.55;;;1.48;;
44536;SDS011;30245;51.966;6.292;2023-07-16T06:11:35;4.43;;;1.42;;
44536;SDS011;30245;51.966;6.292;2023-07-16T06:14:00;4.05;;;1.50;;
44536;SDS011;30245;51.966;6.292;2023-07-16T06:16:26;6.03;;;2.25;;
44536;SDS011;30245;51.966;6.292;2023-07-16T06:18:52;13.00;;;2.10;;
44536;SDS011;30245;51.966;6.292;2023-07-16T06:21:17;7.18;;;1.88;;
44536;SDS011;30245;51.966;6.292;2023-07-16T06:23:43;3.50;;;1.25;;
44536;SDS011;30245;51.966;6.292;2023-07-16T06:26:08;4.00;;;1.58;;
44536;SDS011;30245;51.966;6.292;2023-07-16T06:28:34;5.35;;;1.60;;
44536;SDS011;30245;51.966;6.292;2023-07-16T06:31:00;4.60;;;1.13;;
44536;SDS011;30245;51.966;6.292;2023-07-16T06:33:25;4.55;;;1.95;;
44536;SDS011;30245;51.966;6.292;2023-07-16T06:35:52;6.75;;;1.80;;
44536;SDS011;30245;51.966;6.292;2023-07-16T06:38:17;5.20;;;2.00;;
44536;SDS011;30245;51.966;6.292;2023-07-16T06:40:49;5.70;;;1.88;;
44536;SDS011;30245;51.966;6.292;2023-07-16T06:43:16;9.35;;;2.15;;
44536;SDS011;30245;51.966;6.292;2023-07-16T06:45:42;2.63;;;1.23;;
44536;SDS011;30245;51.966;6.292;2023-07-16T06:48:08;4.70;;;1.70;;
44536;SDS011;30245;51.966;6.292;2023-07-16T06:50:34;5.50;;;2.72;;
44536;SDS011;30245;51.966;6.292;2023-07-16T06:53:00;4.10;;;1.50;;
44536;SDS011;30245;51.966;6.292;2023-07-16T06:55:25;5.22;;;2.22;;
44536;SDS011;30245;51.966;6.292;2023-07-16T06:57:51;4.60;;;2.28;;
44536;SDS011;30245;51.966;6.292;2023-07-16T07:00:17;4.15;;;1.75;;
44536;SDS011;30245;51.966;6.292;2023-07-16T07:02:43;3.70;;;2.50;;
44536;SDS011;30245;51.966;6.292;2023-07-16T07:05:08;4.93;;;2.08;;
44536;SDS011;30245;51.966;6.292;2023-07-16T07:07:34;5.78;;;2.17;;
44536;SDS011;30245;51.966;6.292;2023-07-16T07:10:00;3.85;;;1.85;;
44536;SDS011;30245;51.966;6.292;2023-07-16T07:12:25;5.90;;;2.30;;
44536;SDS011;30245;51.966;6.292;2023-07-16T07:14:51;3.10;;;1.17;;
44536;SDS011;30245;51.966;6.292;2023-07-16T07:17:16;5.97;;;2.08;;
44536;SDS011;30245;51.966;6.292;2023-07-16T07:19:42;5.68;;;1.92;;
44536;SDS011;30245;51.966;6.292;2023-07-16T07:22:08;3.95;;;2.35;;
44536;SDS011;30245;51.966;6.292;2023-07-16T07:24:34;4.57;;;1.55;;
44536;SDS011;30245;51.966;6.292;2023-07-16T07:26:59;6.07;;;2.05;;
44536;SDS011;30245;51.966;6.292;2023-07-16T07:29:25;4.68;;;2.13;;
44536;SDS011;30245;51.966;6.292;2023-07-16T07:31:51;4.00;;;2.65;;
44536;SDS011;30245;51.966;6.292;2023-07-16T07:34:17;5.70;;;1.98;;
44536;SDS011;30245;51.966;6.292;2023-07-16T07:36:43;4.72;;;1.55;;
44536;SDS011;30245;51.966;6.292;2023-07-16T07:39:09;7.63;;;2.15;;
44536;SDS011;30245;51.966;6.292;2023-07-16T07:41:34;9.38;;;2.25;;
44536;SDS011;30245;51.966;6.292;2023-07-16T07:44:00;7.00;;;2.22;;
44536;SDS011;30245;51.966;6.292;2023-07-16T07:46:25;3.97;;;1.38;;
44536;SDS011;30245;51.966;6.292;2023-07-16T07:48:51;4.03;;;1.33;;
44536;SDS011;30245;51.966;6.292;2023-07-16T07:51:17;5.95;;;1.83;;
44536;SDS011;30245;51.966;6.292;2023-07-16T07:53:42;5.22;;;1.85;;
44536;SDS011;30245;51.966;6.292;2023-07-16T07:56:08;7.07;;;1.95;;
44536;SDS011;30245;51.966;6.292;2023-07-16T07:58:33;3.65;;;1.98;;
44536;SDS011;30245;51.966;6.292;2023-07-16T08:01:06;5.30;;;1.50;;
44536;SDS011;30245;51.966;6.292;2023-07-16T08:03:32;5.13;;;1.58;;
44536;SDS011;30245;51.966;6.292;2023-07-16T08:05:58;7.10;;;2.00;;
44536;SDS011;30245;51.966;6.292;2023-07-16T08:08:24;4.53;;;2.22;;
44536;SDS011;30245;51.966;6.292;2023-07-16T08:10:49;5.00;;;1.85;;
44536;SDS011;30245;51.966;6.292;2023-07-16T08:13:15;6.32;;;1.75;;
44536;SDS011;30245;51.966;6.292;2023-07-16T08:15:41;4.55;;;2.35;;
44536;SDS011;30245;51.966;6.292;2023-07-16T08:18:06;7.15;;;1.58;;
44536;SDS011;30245;51.966;6.292;2023-07-16T08:20:32;4.13;;;1.67;;
44536;SDS011;30245;51.966;6.292;2023-07-16T08:22:57;6.68;;;1.90;;
44536;SDS011;30245;51.966;6.292;2023-07-16T08:25:23;4.38;;;2.58;;
44536;SDS011;30245;51.966;6.292;2023-07-16T08:27:49;3.13;;;1.48;;
44536;SDS011;30245;51.966;6.292;2023-07-16T08:30:14;6.03;;;2.00;;
44536;SDS011;30245;51.966;6.292;2023-07-16T08:32:40;4.53;;;1.33;;
44536;SDS011;30245;51.966;6.292;2023-07-16T08:35:06;6.88;;;2.15;;
44536;SDS011;30245;51.966;6.292;2023-07-16T08:37:32;4.07;;;1.75;;
44536;SDS011;30245;51.966;6.292;2023-07-16T08:39:58;4.07;;;1.17;;
44536;SDS011;30245;51.966;6.292;2023-07-16T08:42:23;4.50;;;1.33;;
44536;SDS011;30245;51.966;6.292;2023-07-16T08:44:49;4.22;;;2.17;;
44536;SDS011;30245;51.966;6.292;2023-07-16T08:47:16;7.65;;;1.65;;
44536;SDS011;30245;51.966;6.292;2023-07-16T08:49:41;2.40;;;1.23;;
44536;SDS011;30245;51.966;6.292;2023-07-16T08:52:24;3.47;;;2.08;;
44536;SDS011;30245;51.966;6.292;2023-07-16T08:54:52;4.53;;;1.95;;
44536;SDS011;30245;51.966;6.292;2023-07-16T08:57:18;9.77;;;2.72;;
44536;SDS011;30245;51.966;6.292;2023-07-16T08:59:46;10.13;;;1.38;;
44536;SDS011;30245;51.966;6.292;2023-07-16T09:02:15;4.95;;;1.60;;
44536;SDS011;30245;51.966;6.292;2023-07-16T09:04:42;9.88;;;2.30;;
44536;SDS011;30245;51.966;6.292;2023-07-16T09:07:07;3.22;;;1.65;;
44536;SDS011;30245;51.966;6.292;2023-07-16T09:09:33;6.35;;;2.35;;
44536;SDS011;30245;51.966;6.292;2023-07-16T09:11:59;4.65;;;2.00;;
44536;SDS011;30245;51.966;6.292;2023-07-16T09:14:24;7.13;;;1.73;;
44536;SDS011;30245;51.966;6.292;2023-07-16T09:16:50;2.55;;;1.35;;
44536;SDS011;30245;51.966;6.292;2023-07-16T09:19:17;6.72;;;2.15;;
44536;SDS011;30245;51.966;6.292;2023-07-16T09:21:46;6.72;;;1.42;;
44536;SDS011;30245;51.966;6.292;2023-07-16T09:24:15;2.38;;;0.98;;
44536;SDS011;30245;51.966;6.292;2023-07-16T09:26:48;4.72;;;1.23;;
44536;SDS011;30245;51.966;6.292;2023-07-16T09:29:14;8.88;;;1.48;;
44536;SDS011;30245;51.966;6.292;2023-07-16T09:31:56;6.32;;;1.63;;
44536;SDS011;30245;51.966;6.292;2023-07-16T09:34:23;3.10;;;1.08;;
44536;SDS011;30245;51.966;6.292;2023-07-16T09:36:52;6.43;;;1.30;;
44536;SDS011;30245;51.966;6.292;2023-07-16T09:39:18;8.88;;;1.77;;
44536;SDS011;30245;51.966;6.292;2023-07-16T09:41:47;5.88;;;1.27;;
44536;SDS011;30245;51.966;6.292;2023-07-16T09:44:14;2.28;;;1.15;;
44536;SDS011;30245;51.966;6.292;2023-07-16T09:46:41;3.83;;;1.25;;
44536;SDS011;30245;51.966;6.292;2023-07-16T09:49:07;4.45;;;0.98;;
44536;SDS011;30245;51.966;6.292;2023-07-16T09:51:34;4.95;;;1.63;;
44536;SDS011;30245;51.966;6.292;2023-07-16T09:54:01;7.65;;;1.52;;
44536;SDS011;30245;51.966;6.292;2023-07-16T09:56:29;2.30;;;1.17;;
44536;SDS011;30245;51.966;6.292;2023-07-16T09:59:02;5.97;;;1.42;;
44536;SDS011;30245;51.966;6.292;2023-07-16T10:01:36;5.03;;;1.30;;
44536;SDS011;30245;51.966;6.292;2023-07-16T10:06:48;3.03;;;1.20;;
44536;SDS011;30245;51.966;6.292;2023-07-16T10:09:33;4.40;;;1.58;;
44536;SDS011;30245;51.966;6.292;2023-07-16T10:12:16;2.25;;;0.95;;
44536;SDS011;30245;51.966;6.292;2023-07-16T10:14:44;4.35;;;0.88;;
44536;SDS011;30245;51.966;6.292;2023-07-16T10:17:16;1.77;;;0.73;;
44536;SDS011;30245;51.966;6.292;2023-07-16T10:24:57;2.45;;;0.82;;
44536;SDS011;30245;51.966;6.292;2023-07-16T10:27:30;3.05;;;1.50;;
44536;SDS011;30245;51.966;6.292;2023-07-16T10:29:56;2.75;;;1.25;;
44536;SDS011;30245;51.966;6.292;2023-07-16T10:32:26;4.93;;;1.02;;
44536;SDS011;30245;51.966;6.292;2023-07-16T10:34:53;1.83;;;1.02;;
44536;SDS011;30245;51.966;6.292;2023-07-16T10:37:19;2.42;;;0.70;;
44536;SDS011;30245;51.966;6.292;2023-07-16T10:39:46;3.33;;;0.98;;
44536;SDS011;30245;51.966;6.292;2023-07-16T10:42:16;6.20;;;1.23;;
44536;SDS011;30245;51.966;6.292;2023-07-16T10:44:42;4.00;;;1.45;;
44536;SDS011;30245;51.966;6.292;2023-07-16T10:47:08;2.97;;;0.85;;
44536;SDS011;30245;51.966;6.292;2023-07-16T10:49:44;8.63;;;1.80;;
44536;SDS011;30245;51.966;6.292;2023-07-16T10:52:09;3.03;;;0.77;;
44536;SDS011;30245;51.966;6.292;2023-07-16T10:54:35;3.40;;;1.00;;
44536;SDS011;30245;51.966;6.292;2023-07-16T10:57:01;1.92;;;0.80;;
44536;SDS011;30245;51.966;6.292;2023-07-16T10:59:28;3.58;;;1.00;;
44536;SDS011;30245;51.966;6.292;2023-07-16T11:01:54;2.08;;;0.63;;
44536;SDS011;30245;51.966;6.292;2023-07-16T11:04:20;2.78;;;0.73;;
44536;SDS011;30245;51.966;6.292;2023-07-16T11:06:46;5.38;;;1.45;;
44536;SDS011;30245;51.966;6.292;2023-07-16T11:09:11;3.92;;;1.02;;
44536;SDS011;30245;51.966;6.292;2023-07-16T11:11:37;4.68;;;0.77;;
44536;SDS011;30245;51.966;6.292;2023-07-16T11:16:34;1.60;;;0.80;;
44536;SDS011;30245;51.966;6.292;2023-07-16T11:19:01;3.58;;;0.65;;
44536;SDS011;30245;51.966;6.292;2023-07-16T11:21:29;3.65;;;0.80;;
44536;SDS011;30245;51.966;6.292;2023-07-16T11:23:54;5.38;;;1.50;;
44536;SDS011;30245;51.966;6.292;2023-07-16T11:26:20;4.53;;;0.93;;
44536;SDS011;30245;51.966;6.292;2023-07-16T11:28:46;1.55;;;0.73;;
44536;SDS011;30245;51.966;6.292;2023-07-16T11:31:16;4.65;;;0.90;;
44536;SDS011;30245;51.966;6.292;2023-07-16T11:33:43;5.53;;;0.98;;
44536;SDS011;30245;51.966;6.292;2023-07-16T11:36:09;3.55;;;0.98;;
44536;SDS011;30245;51.966;6.292;2023-07-16T11:38:36;5.22;;;0.80;;
44536;SDS011;30245;51.966;6.292;2023-07-16T11:41:02;1.50;;;0.88;;
44536;SDS011;30245;51.966;6.292;2023-07-16T11:43:28;2.13;;;0.73;;
44536;SDS011;30245;51.966;6.292;2023-07-16T11:45:53;4.03;;;0.90;;
44536;SDS011;30245;51.966;6.292;2023-07-16T11:48:19;2.35;;;0.80;;
44536;SDS011;30245;51.966;6.292;2023-07-16T11:50:45;4.70;;;0.85;;
44536;SDS011;30245;51.966;6.292;2023-07-16T11:53:10;1.45;;;0.90;;
44536;SDS011;30245;51.966;6.292;2023-07-16T11:55:36;1.85;;;0.77;;
44536;SDS011;30245;51.966;6.292;2023-07-16T11:58:02;3.90;;;0.65;;
44536;SDS011;30245;51.966;6.292;2023-07-16T12:00:28;2.85;;;0.60;;
44536;SDS011;30245;51.966;6.292;2023-07-16T12:02:54;3.15;;;0.82;;
44536;SDS011;30245;51.966;6.292;2023-07-16T12:05:20;1.63;;;1.00;;
44536;SDS011;30245;51.966;6.292;2023-07-16T12:07:46;2.53;;;0.60;;
44536;SDS011;30245;51.966;6.292;2023-07-16T12:10:12;1.27;;;0.40;;
44536;SDS011;30245;51.966;6.292;2023-07-16T12:12:37;3.63;;;0.50;;
44536;SDS011;30245;51.966;6.292;2023-07-16T12:15:04;3.03;;;0.90;;
44536;SDS011;30245;51.966;6.292;2023-07-16T12:17:30;2.97;;;1.05;;
44536;SDS011;30245;51.966;6.292;2023-07-16T12:19:56;1.42;;;0.55;;
44536;SDS011;30245;51.966;6.292;2023-07-16T12:22:21;2.33;;;0.65;;
44536;SDS011;30245;51.966;6.292;2023-07-16T12:24:48;1.90;;;1.02;;
44536;SDS011;30245;51.966;6.292;2023-07-16T12:27:14;2.25;;;0.82;;
44536;SDS011;30245;51.966;6.292;2023-07-16T12:29:40;2.17;;;0.68;;
44536;SDS011;30245;51.966;6.292;2023-07-16T12:32:06;3.15;;;1.00;;
44536;SDS011;30245;51.966;6.292;2023-07-16T12:34:33;2.75;;;0.60;;
44536;SDS011;30245;51.966;6.292;2023-07-16T12:36:59;5.18;;;1.27;;
44536;SDS011;30245;51.966;6.292;2023-07-16T12:39:24;5.00;;;1.88;;
44536;SDS011;30245;51.966;6.292;2023-07-16T12:41:50;2.30;;;0.80;;
44536;SDS011;30245;51.966;6.292;2023-07-16T12:44:16;3.28;;;0.88;;
44536;SDS011;30245;51.966;6.292;2023-07-16T12:46:41;2.15;;;1.13;;
44536;SDS011;30245;51.966;6.292;2023-07-16T12:49:07;2.03;;;0.90;;
44536;SDS011;30245;51.966;6.292;2023-07-16T12:51:32;4.93;;;1.17;;
44536;SDS011;30245;51.966;6.292;2023-07-16T12:53:58;3.50;;;0.90;;
44536;SDS011;30245;51.966;6.292;2023-07-16T12:56:25;3.58;;;0.95;;
44536;SDS011;30245;51.966;6.292;2023-07-16T12:58:51;3.03;;;0.90;;
44536;SDS011;30245;51.966;6.292;2023-07-16T13:01:17;4.57;;;0.70;;
44536;SDS011;30245;51.966;6.292;2023-07-16T13:03:42;4.03;;;1.17;;
44536;SDS011;30245;51.966;6.292;2023-07-16T13:06:08;2.40;;;0.75;;
44536;SDS011;30245;51.966;6.292;2023-07-16T13:08:34;2.55;;;0.65;;
44536;SDS011;30245;51.966;6.292;2023-07-16T13:11:00;3.45;;;0.85;;
44536;SDS011;30245;51.966;6.292;2023-07-16T13:13:26;1.70;;;0.57;;
44536;SDS011;30245;51.966;6.292;2023-07-16T13:15:52;2.47;;;0.60;;
44536;SDS011;30245;51.966;6.292;2023-07-16T13:18:17;1.30;;;0.52;;
44536;SDS011;30245;51.966;6.292;2023-07-16T13:20:43;4.28;;;0.77;;
44536;SDS011;30245;51.966;6.292;2023-07-16T13:23:09;2.75;;;0.95;;
44536;SDS011;30245;51.966;6.292;2023-07-16T13:25:35;1.38;;;0.77;;
44536;SDS011;30245;51.966;6.292;2023-07-16T13:28:03;3.72;;;0.93;;
44536;SDS011;30245;51.966;6.292;2023-07-16T13:30:32;5.00;;;1.10;;
44536;SDS011;30245;51.966;6.292;2023-07-16T13:32:58;1.65;;;0.88;;
44536;SDS011;30245;51.966;6.292;2023-07-16T13:35:23;2.67;;;1.27;;
44536;SDS011;30245;51.966;6.292;2023-07-16T13:37:49;2.75;;;1.08;;
44536;SDS011;30245;51.966;6.292;2023-07-16T13:40:16;3.35;;;1.00;;
44536;SDS011;30245;51.966;6.292;2023-07-16T13:42:41;2.35;;;0.77;;
44536;SDS011;30245;51.966;6.292;2023-07-16T13:45:07;4.55;;;0.52;;
44536;SDS011;30245;51.966;6.292;2023-07-16T13:47:33;4.47;;;0.90;;
44536;SDS011;30245;51.966;6.292;2023-07-16T13:49:59;0.85;;;0.50;;
44536;SDS011;30245;51.966;6.292;2023-07-16T13:52:24;2.60;;;0.85;;
44536;SDS011;30245;51.966;6.292;2023-07-16T13:54:50;2.67;;;0.80;;
44536;SDS011;30245;51.966;6.292;2023-07-16T13:57:16;3.50;;;1.13;;
44536;SDS011;30245;51.966;6.292;2023-07-16T13:59:41;1.42;;;0.63;;
44536;SDS011;30245;51.966;6.292;2023-07-16T14:02:07;1.95;;;0.65;;
44536;SDS011;30245;51.966;6.292;2023-07-16T14:04:33;2.60;;;0.80;;
44536;SDS011;30245;51.966;6.292;2023-07-16T14:06:59;4.05;;;1.35;;
44536;SDS011;30245;51.966;6.292;2023-07-16T14:09:24;2.70;;;0.90;;
44536;SDS011;30245;51.966;6.292;2023-07-16T14:11:50;2.50;;;0.57;;
44536;SDS011;30245;51.966;6.292;2023-07-16T14:14:20;1.88;;;1.25;;
44536;SDS011;30245;51.966;6.292;2023-07-16T14:16:46;3.40;;;0.60;;
44536;SDS011;30245;51.966;6.292;2023-07-16T14:19:12;2.58;;;1.00;;
44536;SDS011;30245;51.966;6.292;2023-07-16T14:21:38;2.55;;;0.75;;
44536;SDS011;30245;51.966;6.292;2023-07-16T14:24:04;2.60;;;0.85;;
44536;SDS011;30245;51.966;6.292;2023-07-16T14:26:30;1.58;;;0.60;;
44536;SDS011;30245;51.966;6.292;2023-07-16T14:28:55;1.80;;;1.02;;
44536;SDS011;30245;51.966;6.292;2023-07-16T14:31:21;1.58;;;0.80;;
44536;SDS011;30245;51.966;6.292;2023-07-16T14:33:47;2.00;;;0.50;;
44536;SDS011;30245;51.966;6.292;2023-07-16T14:36:12;3.75;;;1.05;;
44536;SDS011;30245;51.966;6.292;2023-07-16T14:38:38;1.98;;;0.60;;
44536;SDS011;30245;51.966;6.292;2023-07-16T14:41:04;3.45;;;0.50;;
44536;SDS011;30245;51.966;6.292;2023-07-16T14:43:31;1.42;;;0.50;;
44536;SDS011;30245;51.966;6.292;2023-07-16T14:45:57;1.38;;;0.40;;
44536;SDS011;30245;51.966;6.292;2023-07-16T14:48:22;2.60;;;0.30;;
44536;SDS011;30245;51.966;6.292;2023-07-16T14:50:48;4.93;;;0.70;;
44536;SDS011;30245;51.966;6.292;2023-07-16T14:53:15;1.85;;;0.45;;
44536;SDS011;30245;51.966;6.292;2023-07-16T14:55:45;1.20;;;0.40;;